createdAt,value
2023-05-16T00:02:44.108Z,1.13
2023-05-16T00:08:49.018Z,1.30
2023-05-16T00:14:52.884Z,1.88
2023-05-16T00:20:57.148Z,1.73
2023-05-16T00:27:01.918Z,1.40
2023-05-16T00:33:05.561Z,1.52
2023-05-16T00:39:11.540Z,1.65
2023-05-16T00:45:16.400Z,1.77
2023-05-16T00:51:19.819Z,1.60
2023-05-16T00:57:24.270Z,1.50
2023-05-16T01:03:29.788Z,1.40
2023-05-16T01:09:33.545Z,1.40
2023-05-16T01:15:41.809Z,1.52
2023-05-16T01:21:51.324Z,1.35
2023-05-16T01:27:57.452Z,1.90
2023-05-16T01:34:00.853Z,1.50
2023-05-16T01:40:10.280Z,1.60
2023-05-16T01:46:16.945Z,1.67
2023-05-16T01:52:21.989Z,1.95
2023-05-16T01:58:27.067Z,2.08
2023-05-16T02:04:34.215Z,1.70
2023-05-16T02:10:37.599Z,1.65
2023-05-16T02:16:41.288Z,2.38
2023-05-16T02:22:47.695Z,1.27
2023-05-16T02:28:51.396Z,1.70
2023-05-16T02:34:54.807Z,1.60
2023-05-16T02:40:59.644Z,1.48
2023-05-16T02:47:03.075Z,1.88
2023-05-16T02:53:06.964Z,1.60
2023-05-16T02:59:13.343Z,1.48
2023-05-16T03:05:17.200Z,1.70
2023-05-16T03:11:22.111Z,1.50
2023-05-16T03:17:27.005Z,2.00
2023-05-16T03:23:30.955Z,1.70
2023-05-16T03:29:35.179Z,1.40
2023-05-16T03:35:40.087Z,1.50
2023-05-16T03:41:43.472Z,2.08
2023-05-16T03:47:47.075Z,1.90
2023-05-16T03:53:51.907Z,1.60
2023-05-16T03:59:55.346Z,1.67
2023-05-16T04:05:59.679Z,1.50
2023-05-16T04:12:04.561Z,1.80
2023-05-16T04:18:08.175Z,1.88
2023-05-16T04:24:11.587Z,1.63
2023-05-16T04:30:16.798Z,1.80
2023-05-16T04:36:20.226Z,1.77
2023-05-16T04:42:24.253Z,1.60
2023-05-16T04:48:29.054Z,1.90
2023-05-16T04:54:32.457Z,1.90
2023-05-16T05:00:35.973Z,1.95
2023-05-16T05:06:41.271Z,1.60
2023-05-16T05:12:45.131Z,2.08
2023-05-16T05:18:48.626Z,1.40
2023-05-16T05:24:53.555Z,1.70
2023-05-16T05:30:57.018Z,1.63
2023-05-16T05:37:00.653Z,1.60
2023-05-16T05:43:05.471Z,1.48
2023-05-16T05:49:09.069Z,1.40
2023-05-16T05:55:12.532Z,1.65
2023-05-16T06:01:17.692Z,1.42
2023-05-16T06:07:21.213Z,1.50
2023-05-16T06:13:24.834Z,1.55
2023-05-16T06:19:29.920Z,1.65
2023-05-16T06:25:33.353Z,1.60
2023-05-16T06:31:36.853Z,1.17
2023-05-16T06:37:43.022Z,1.85
2023-05-16T06:43:46.944Z,1.33
2023-05-16T06:49:50.779Z,1.30
2023-05-16T06:55:55.767Z,1.45
2023-05-16T07:01:59.241Z,1.15
2023-05-16T07:08:02.770Z,1.02
2023-05-16T07:14:07.523Z,1.10
2023-05-16T07:20:13.815Z,0.90
2023-05-16T07:26:17.266Z,0.95
2023-05-16T07:32:22.269Z,1.13
2023-05-16T07:38:26.026Z,1.15
2023-05-16T07:44:29.455Z,0.93
2023-05-16T07:50:34.289Z,0.80
2023-05-16T07:56:38.293Z,0.70
2023-05-16T08:02:42.048Z,0.90
2023-05-16T08:08:47.074Z,0.63
2023-05-16T08:14:50.593Z,0.90
2023-05-16T08:20:54.254Z,0.75
2023-05-16T08:26:59.117Z,0.95
2023-05-16T08:33:05.128Z,1.05
2023-05-16T08:39:11.185Z,0.90
2023-05-16T08:45:18.177Z,0.82
2023-05-16T08:51:22.284Z,1.45
2023-05-16T08:57:26.381Z,1.00
2023-05-16T09:03:31.220Z,0.80
2023-05-16T09:09:34.665Z,1.10
2023-05-16T09:15:38.230Z,0.73
2023-05-16T09:21:44.051Z,0.80
2023-05-16T09:27:48.687Z,0.70
2023-05-16T09:33:52.324Z,1.08
2023-05-16T09:39:57.379Z,0.68
2023-05-16T09:46:01.423Z,1.00
2023-05-16T09:52:06.837Z,0.90
2023-05-16T09:58:11.933Z,0.65
2023-05-16T10:04:16.412Z,0.70
2023-05-16T10:10:20.825Z,1.00
2023-05-16T10:16:26.021Z,0.98
2023-05-16T10:22:30.526Z,0.60
2023-05-16T10:28:34.329Z,0.73
2023-05-16T10:34:39.316Z,0.80
2023-05-16T10:40:43.109Z,0.65
2023-05-16T10:46:48.835Z,0.70
2023-05-16T10:52:55.849Z,0.80
2023-05-16T10:58:59.533Z,0.80
2023-05-16T11:05:03.820Z,1.20
2023-05-16T11:11:28.177Z,0.70
2023-05-16T11:17:41.515Z,0.82
2023-05-16T11:24:06.839Z,1.20
2023-05-16T11:30:14.093Z,0.60
2023-05-16T11:36:19.072Z,1.45
2023-05-16T11:42:22.612Z,0.98
2023-05-16T11:48:35.820Z,0.60
2023-05-16T11:54:42.434Z,0.65
2023-05-16T12:00:49.927Z,0.52
2023-05-16T12:07:03.037Z,0.55
2023-05-16T12:13:07.996Z,0.32
2023-05-16T12:19:11.866Z,0.80
2023-05-16T12:25:25.550Z,0.80
2023-05-16T12:31:32.598Z,0.60
2023-05-16T12:37:36.784Z,0.47
2023-05-16T12:43:46.816Z,0.50
2023-05-16T12:49:51.723Z,0.90
2023-05-16T12:55:55.499Z,0.57
2023-05-16T13:01:59.157Z,0.50
2023-05-16T13:08:04.230Z,0.60
2023-05-16T13:14:07.692Z,0.40
2023-05-16T13:20:13.618Z,0.57
2023-05-16T13:26:18.777Z,0.50
2023-05-16T13:32:22.416Z,0.45
2023-05-16T13:38:26.212Z,0.68
2023-05-16T13:44:33.459Z,0.80
2023-05-16T13:56:47.252Z,0.70
2023-05-16T14:02:53.124Z,0.60
2023-05-16T14:08:59.045Z,0.80
2023-05-16T14:15:02.679Z,0.60
2023-05-16T14:21:07.860Z,0.68
2023-05-16T14:27:11.295Z,0.90
2023-05-16T14:33:14.850Z,0.80
2023-05-16T14:39:19.930Z,1.05
2023-05-16T14:45:23.427Z,0.77
2023-05-16T14:51:26.900Z,0.82
2023-05-16T14:57:32.814Z,0.70
2023-05-16T15:03:53.720Z,0.90
2023-05-16T15:09:59.124Z,0.90
2023-05-16T15:16:04.298Z,0.82
2023-05-16T15:22:08.924Z,0.68
2023-05-16T15:28:12.359Z,0.88
2023-05-16T15:34:17.735Z,0.70
2023-05-16T15:40:26.278Z,0.70
2023-05-16T15:46:32.991Z,0.98
2023-05-16T15:52:38.046Z,1.20
2023-05-16T15:58:41.507Z,1.27
2023-05-16T16:04:44.927Z,1.30
2023-05-16T16:10:49.827Z,1.33
2023-05-16T16:16:53.793Z,1.63
2023-05-16T16:22:57.322Z,1.95
2023-05-16T16:29:02.174Z,1.75
2023-05-16T16:35:06.120Z,1.80
2023-05-16T16:41:09.918Z,1.52
2023-05-16T16:47:15.336Z,1.52
2023-05-16T16:53:18.922Z,2.78
2023-05-16T16:59:22.650Z,2.30
2023-05-16T17:05:27.793Z,2.05
2023-05-16T17:11:31.921Z,1.92
2023-05-16T17:17:35.426Z,1.60
2023-05-16T17:23:46.420Z,2.50
2023-05-16T17:29:49.959Z,2.20
2023-05-16T17:35:53.858Z,1.83
2023-05-16T17:41:59.293Z,1.75
2023-05-16T17:48:03.123Z,1.88
2023-05-16T17:54:06.655Z,2.15
2023-05-16T18:00:15.043Z,2.10
2023-05-16T18:06:19.002Z,2.40
2023-05-16T18:12:22.706Z,2.28
2023-05-16T18:18:27.914Z,2.00
2023-05-16T18:24:31.768Z,2.38
2023-05-16T18:30:37.905Z,2.35
2023-05-16T18:36:43.033Z,3.25
2023-05-16T18:42:46.557Z,3.67
2023-05-16T18:48:50.212Z,3.20
2023-05-16T18:54:55.390Z,3.42
2023-05-16T19:00:58.867Z,3.65
2023-05-16T19:07:03.918Z,4.38
2023-05-16T19:13:10.161Z,4.60
2023-05-16T19:19:13.935Z,4.40
2023-05-16T19:25:17.974Z,4.18
2023-05-16T19:31:23.029Z,4.30
2023-05-16T19:37:27.082Z,4.03
2023-05-16T19:43:30.756Z,4.25
2023-05-16T19:49:36.415Z,4.00
2023-05-16T19:55:39.953Z,3.88
2023-05-16T20:01:43.487Z,4.05
2023-05-16T20:07:48.329Z,3.28
2023-05-16T20:13:51.792Z,3.33
2023-05-16T20:19:58.322Z,3.35
2023-05-16T20:26:03.172Z,3.47
2023-05-16T20:32:06.901Z,2.95
2023-05-16T20:38:10.334Z,2.47
2023-05-16T20:44:15.537Z,2.25
2023-05-16T20:50:19.019Z,1.67
2023-05-16T20:56:22.619Z,2.22
2023-05-16T21:02:27.788Z,1.88
2023-05-16T21:08:31.314Z,1.80
2023-05-16T21:14:34.914Z,1.90
2023-05-16T21:20:39.735Z,1.80
2023-05-16T21:26:43.208Z,2.08
2023-05-16T21:32:46.744Z,2.00
2023-05-16T21:38:51.813Z,2.00
2023-05-16T21:44:55.379Z,1.88
2023-05-16T21:50:58.852Z,1.92
2023-05-16T21:57:03.658Z,1.90
2023-05-16T22:03:07.294Z,1.77
2023-05-16T22:09:11.760Z,1.90
2023-05-16T22:15:16.641Z,1.88
2023-05-16T22:21:20.405Z,1.90
2023-05-16T22:27:23.872Z,2.25
2023-05-16T22:33:28.843Z,2.97
2023-05-16T22:39:32.662Z,1.98
2023-05-16T22:45:36.188Z,1.90
2023-05-16T22:51:40.996Z,2.50
2023-05-16T22:57:45.533Z,2.40
2023-05-16T23:03:49.060Z,1.98
2023-05-16T23:09:53.967Z,1.80
2023-05-16T23:15:57.571Z,1.70
2023-05-16T23:22:01.020Z,2.08
2023-05-16T23:28:06.168Z,2.10
2023-05-16T23:34:09.873Z,2.47
2023-05-16T23:40:13.750Z,1.80
2023-05-16T23:46:18.640Z,2.30
2023-05-16T23:52:22.114Z,1.88
2023-05-16T23:58:25.887Z,2.15
